sensor_id;sensor_type;location;lat;lon;timestamp;P1;durP1;ratioP1;P2;durP2;ratioP2
71207;SDS011;58938;49.868;8.646;2023-06-26T00:01:13;7.03;;;4.72;;
71207;SDS011;58938;49.868;8.646;2023-06-26T00:03:39;7.55;;;4.80;;
71207;SDS011;58938;49.868;8.646;2023-06-26T00:06:05;8.07;;;4.80;;
71207;SDS011;58938;49.868;8.646;2023-06-26T00:08:31;8.32;;;5.65;;
71207;SDS011;58938;49.868;8.646;2023-06-26T00:10:57;10.50;;;5.50;;
71207;SDS011;58938;49.868;8.646;2023-06-26T00:13:23;7.28;;;4.78;;
71207;SDS011;58938;49.868;8.646;2023-06-26T00:15:50;8.33;;;5.10;;
71207;SDS011;58938;49.868;8.646;2023-06-26T00:18:16;7.32;;;4.50;;
71207;SDS011;58938;49.868;8.646;2023-06-26T00:20:42;8.93;;;4.75;;
71207;SDS011;58938;49.868;8.646;2023-06-26T00:23:08;8.45;;;5.00;;
71207;SDS011;58938;49.868;8.646;2023-06-26T00:25:34;8.77;;;4.77;;
71207;SDS011;58938;49.868;8.646;2023-06-26T00:28:00;7.43;;;4.70;;
71207;SDS011;58938;49.868;8.646;2023-06-26T00:30:26;9.80;;;4.63;;
71207;SDS011;58938;49.868;8.646;2023-06-26T00:32:52;8.25;;;4.70;;
71207;SDS011;58938;49.868;8.646;2023-06-26T00:35:18;7.75;;;4.72;;
71207;SDS011;58938;49.868;8.646;2023-06-26T00:37:44;7.80;;;5.10;;
71207;SDS011;58938;49.868;8.646;2023-06-26T00:40:10;10.18;;;5.32;;
71207;SDS011;58938;49.868;8.646;2023-06-26T00:42:36;9.73;;;5.25;;
71207;SDS011;58938;49.868;8.646;2023-06-26T00:45:02;9.13;;;6.10;;
71207;SDS011;58938;49.868;8.646;2023-06-26T00:47:28;9.57;;;5.47;;
71207;SDS011;58938;49.868;8.646;2023-06-26T00:49:55;8.27;;;5.20;;
71207;SDS011;58938;49.868;8.646;2023-06-26T00:52:21;9.48;;;5.80;;
71207;SDS011;58938;49.868;8.646;2023-06-26T00:54:48;9.82;;;5.97;;
71207;SDS011;58938;49.868;8.646;2023-06-26T00:57:16;9.88;;;5.95;;
71207;SDS011;58938;49.868;8.646;2023-06-26T00:59:42;8.63;;;6.00;;
71207;SDS011;58938;49.868;8.646;2023-06-26T01:02:08;8.65;;;5.68;;
71207;SDS011;58938;49.868;8.646;2023-06-26T01:04:34;11.38;;;6.93;;
71207;SDS011;58938;49.868;8.646;2023-06-26T01:07:01;10.57;;;6.88;;
71207;SDS011;58938;49.868;8.646;2023-06-26T01:09:27;11.15;;;7.07;;
71207;SDS011;58938;49.868;8.646;2023-06-26T01:11:54;10.33;;;6.90;;
71207;SDS011;58938;49.868;8.646;2023-06-26T01:14:20;11.55;;;6.85;;
71207;SDS011;58938;49.868;8.646;2023-06-26T01:16:46;9.90;;;6.43;;
71207;SDS011;58938;49.868;8.646;2023-06-26T01:19:24;9.93;;;6.72;;
71207;SDS011;58938;49.868;8.646;2023-06-26T01:24:39;9.90;;;6.80;;
71207;SDS011;58938;49.868;8.646;2023-06-26T01:27:08;10.55;;;6.97;;
71207;SDS011;58938;49.868;8.646;2023-06-26T01:29:34;10.63;;;7.30;;
71207;SDS011;58938;49.868;8.646;2023-06-26T01:32:00;11.65;;;7.82;;
71207;SDS011;58938;49.868;8.646;2023-06-26T01:34:26;10.30;;;7.03;;
71207;SDS011;58938;49.868;8.646;2023-06-26T01:36:53;10.30;;;6.40;;
71207;SDS011;58938;49.868;8.646;2023-06-26T01:39:19;9.10;;;6.18;;
71207;SDS011;58938;49.868;8.646;2023-06-26T01:41:45;9.57;;;6.28;;
71207;SDS011;58938;49.868;8.646;2023-06-26T01:44:17;9.48;;;6.35;;
71207;SDS011;58938;49.868;8.646;2023-06-26T01:46:59;9.13;;;6.03;;
71207;SDS011;58938;49.868;8.646;2023-06-26T01:52:00;9.00;;;5.97;;
71207;SDS011;58938;49.868;8.646;2023-06-26T01:54:29;9.63;;;6.00;;
71207;SDS011;58938;49.868;8.646;2023-06-26T01:56:56;9.65;;;6.30;;
71207;SDS011;58938;49.868;8.646;2023-06-26T01:59:23;9.07;;;5.90;;
71207;SDS011;58938;49.868;8.646;2023-06-26T02:01:49;9.23;;;5.70;;
71207;SDS011;58938;49.868;8.646;2023-06-26T02:04:15;8.85;;;5.80;;
71207;SDS011;58938;49.868;8.646;2023-06-26T02:06:41;8.93;;;5.90;;
71207;SDS011;58938;49.868;8.646;2023-06-26T02:09:07;8.80;;;5.78;;
71207;SDS011;58938;49.868;8.646;2023-06-26T02:11:33;10.47;;;5.90;;
71207;SDS011;58938;49.868;8.646;2023-06-26T02:14:00;8.35;;;5.65;;
71207;SDS011;58938;49.868;8.646;2023-06-26T02:16:26;9.48;;;6.63;;
71207;SDS011;58938;49.868;8.646;2023-06-26T02:18:51;9.63;;;5.93;;
71207;SDS011;58938;49.868;8.646;2023-06-26T02:21:17;9.88;;;6.28;;
71207;SDS011;58938;49.868;8.646;2023-06-26T02:23:43;9.03;;;5.70;;
71207;SDS011;58938;49.868;8.646;2023-06-26T02:26:09;9.13;;;5.82;;
71207;SDS011;58938;49.868;8.646;2023-06-26T02:28:36;8.48;;;5.63;;
71207;SDS011;58938;49.868;8.646;2023-06-26T02:31:02;9.82;;;6.57;;
71207;SDS011;58938;49.868;8.646;2023-06-26T02:33:28;10.00;;;5.70;;
71207;SDS011;58938;49.868;8.646;2023-06-26T02:35:54;10.52;;;6.25;;
71207;SDS011;58938;49.868;8.646;2023-06-26T02:38:20;8.90;;;6.32;;
71207;SDS011;58938;49.868;8.646;2023-06-26T02:40:45;10.32;;;7.53;;
71207;SDS011;58938;49.868;8.646;2023-06-26T02:43:11;9.13;;;6.23;;
71207;SDS011;58938;49.868;8.646;2023-06-26T02:45:37;10.20;;;6.47;;
71207;SDS011;58938;49.868;8.646;2023-06-26T02:48:03;7.95;;;5.50;;
71207;SDS011;58938;49.868;8.646;2023-06-26T02:50:29;8.90;;;5.80;;
71207;SDS011;58938;49.868;8.646;2023-06-26T02:52:55;10.13;;;5.53;;
71207;SDS011;58938;49.868;8.646;2023-06-26T02:55:22;11.27;;;5.53;;
71207;SDS011;58938;49.868;8.646;2023-06-26T02:57:48;14.07;;;6.53;;
71207;SDS011;58938;49.868;8.646;2023-06-26T03:00:14;9.27;;;6.00;;
71207;SDS011;58938;49.868;8.646;2023-06-26T03:02:40;8.88;;;6.10;;
71207;SDS011;58938;49.868;8.646;2023-06-26T03:05:06;8.63;;;5.80;;
71207;SDS011;58938;49.868;8.646;2023-06-26T03:07:32;8.82;;;5.25;;
71207;SDS011;58938;49.868;8.646;2023-06-26T03:09:58;8.82;;;5.75;;
71207;SDS011;58938;49.868;8.646;2023-06-26T03:12:25;9.45;;;5.90;;
71207;SDS011;58938;49.868;8.646;2023-06-26T03:14:51;11.90;;;5.40;;
71207;SDS011;58938;49.868;8.646;2023-06-26T03:17:17;10.05;;;5.88;;
71207;SDS011;58938;49.868;8.646;2023-06-26T03:19:43;9.50;;;6.65;;
71207;SDS011;58938;49.868;8.646;2023-06-26T03:22:10;9.85;;;5.80;;
71207;SDS011;58938;49.868;8.646;2023-06-26T03:24:36;9.93;;;5.53;;
71207;SDS011;58938;49.868;8.646;2023-06-26T03:27:01;9.17;;;5.80;;
71207;SDS011;58938;49.868;8.646;2023-06-26T03:29:28;9.20;;;5.60;;
71207;SDS011;58938;49.868;8.646;2023-06-26T03:31:54;8.38;;;5.63;;
71207;SDS011;58938;49.868;8.646;2023-06-26T03:34:21;10.65;;;5.70;;
71207;SDS011;58938;49.868;8.646;2023-06-26T03:36:46;9.07;;;6.30;;
71207;SDS011;58938;49.868;8.646;2023-06-26T03:39:12;10.13;;;5.85;;
71207;SDS011;58938;49.868;8.646;2023-06-26T03:41:38;9.50;;;5.78;;
71207;SDS011;58938;49.868;8.646;2023-06-26T03:44:04;11.77;;;5.97;;
71207;SDS011;58938;49.868;8.646;2023-06-26T03:46:30;9.77;;;5.97;;
71207;SDS011;58938;49.868;8.646;2023-06-26T03:48:56;9.73;;;5.97;;
71207;SDS011;58938;49.868;8.646;2023-06-26T03:51:22;10.20;;;6.10;;
71207;SDS011;58938;49.868;8.646;2023-06-26T03:53:48;11.30;;;5.90;;
71207;SDS011;58938;49.868;8.646;2023-06-26T03:56:14;8.97;;;6.07;;
71207;SDS011;58938;49.868;8.646;2023-06-26T03:58:40;8.75;;;5.85;;
71207;SDS011;58938;49.868;8.646;2023-06-26T04:01:06;9.18;;;6.13;;
71207;SDS011;58938;49.868;8.646;2023-06-26T04:03:32;11.55;;;6.47;;
71207;SDS011;58938;49.868;8.646;2023-06-26T04:05:58;11.07;;;6.20;;
71207;SDS011;58938;49.868;8.646;2023-06-26T04:08:24;10.45;;;6.20;;
71207;SDS011;58938;49.868;8.646;2023-06-26T04:10:53;10.77;;;6.68;;
71207;SDS011;58938;49.868;8.646;2023-06-26T04:13:22;10.10;;;6.32;;
71207;SDS011;58938;49.868;8.646;2023-06-26T04:15:48;11.38;;;7.20;;
71207;SDS011;58938;49.868;8.646;2023-06-26T04:18:14;11.83;;;7.30;;
71207;SDS011;58938;49.868;8.646;2023-06-26T04:20:41;10.98;;;7.00;;
71207;SDS011;58938;49.868;8.646;2023-06-26T04:23:10;11.50;;;6.57;;
71207;SDS011;58938;49.868;8.646;2023-06-26T04:25:35;11.82;;;6.63;;
71207;SDS011;58938;49.868;8.646;2023-06-26T04:28:02;9.57;;;7.17;;
71207;SDS011;58938;49.868;8.646;2023-06-26T04:30:28;11.20;;;7.15;;
71207;SDS011;58938;49.868;8.646;2023-06-26T04:32:55;11.75;;;7.03;;
71207;SDS011;58938;49.868;8.646;2023-06-26T04:35:23;11.35;;;6.15;;
71207;SDS011;58938;49.868;8.646;2023-06-26T04:37:49;13.83;;;7.67;;
71207;SDS011;58938;49.868;8.646;2023-06-26T04:40:15;11.65;;;6.55;;
71207;SDS011;58938;49.868;8.646;2023-06-26T04:42:41;14.02;;;6.40;;
71207;SDS011;58938;49.868;8.646;2023-06-26T04:45:07;11.75;;;6.30;;
71207;SDS011;58938;49.868;8.646;2023-06-26T04:47:33;11.33;;;6.27;;
71207;SDS011;58938;49.868;8.646;2023-06-26T04:49:59;13.98;;;6.55;;
71207;SDS011;58938;49.868;8.646;2023-06-26T04:52:25;11.77;;;6.20;;
71207;SDS011;58938;49.868;8.646;2023-06-26T04:54:51;12.73;;;7.13;;
71207;SDS011;58938;49.868;8.646;2023-06-26T04:57:17;11.27;;;6.50;;
71207;SDS011;58938;49.868;8.646;2023-06-26T04:59:43;10.70;;;5.78;;
71207;SDS011;58938;49.868;8.646;2023-06-26T05:02:09;9.85;;;5.88;;
71207;SDS011;58938;49.868;8.646;2023-06-26T05:04:36;9.55;;;6.28;;
71207;SDS011;58938;49.868;8.646;2023-06-26T05:07:02;10.70;;;6.37;;
71207;SDS011;58938;49.868;8.646;2023-06-26T05:09:28;11.25;;;6.45;;
71207;SDS011;58938;49.868;8.646;2023-06-26T05:11:54;13.75;;;7.35;;
71207;SDS011;58938;49.868;8.646;2023-06-26T05:14:20;11.80;;;6.65;;
71207;SDS011;58938;49.868;8.646;2023-06-26T05:16:46;13.20;;;7.03;;
71207;SDS011;58938;49.868;8.646;2023-06-26T05:19:12;10.93;;;7.13;;
71207;SDS011;58938;49.868;8.646;2023-06-26T05:21:38;10.65;;;6.32;;
71207;SDS011;58938;49.868;8.646;2023-06-26T05:24:05;12.55;;;6.40;;
71207;SDS011;58938;49.868;8.646;2023-06-26T05:26:31;11.93;;;6.72;;
71207;SDS011;58938;49.868;8.646;2023-06-26T05:28:57;13.17;;;7.17;;
71207;SDS011;58938;49.868;8.646;2023-06-26T05:31:23;11.93;;;7.00;;
71207;SDS011;58938;49.868;8.646;2023-06-26T05:33:49;12.15;;;7.13;;
71207;SDS011;58938;49.868;8.646;2023-06-26T05:36:16;11.82;;;8.02;;
71207;SDS011;58938;49.868;8.646;2023-06-26T05:38:42;10.38;;;7.25;;
71207;SDS011;58938;49.868;8.646;2023-06-26T05:41:08;13.27;;;6.87;;
71207;SDS011;58938;49.868;8.646;2023-06-26T05:43:34;11.32;;;7.20;;
71207;SDS011;58938;49.868;8.646;2023-06-26T05:46:00;13.18;;;7.13;;
71207;SDS011;58938;49.868;8.646;2023-06-26T05:48:26;11.32;;;7.22;;
71207;SDS011;58938;49.868;8.646;2023-06-26T05:50:52;11.35;;;7.45;;
71207;SDS011;58938;49.868;8.646;2023-06-26T05:53:18;11.17;;;6.97;;
71207;SDS011;58938;49.868;8.646;2023-06-26T05:55:45;13.95;;;8.57;;
71207;SDS011;58938;49.868;8.646;2023-06-26T05:58:11;13.23;;;8.05;;
71207;SDS011;58938;49.868;8.646;2023-06-26T06:00:38;13.27;;;7.25;;
71207;SDS011;58938;49.868;8.646;2023-06-26T06:03:05;11.32;;;7.45;;
71207;SDS011;58938;49.868;8.646;2023-06-26T06:05:31;11.23;;;7.70;;
71207;SDS011;58938;49.868;8.646;2023-06-26T06:07:57;14.90;;;7.82;;
71207;SDS011;58938;49.868;8.646;2023-06-26T06:10:23;13.25;;;8.07;;
71207;SDS011;58938;49.868;8.646;2023-06-26T06:12:49;12.43;;;7.68;;
71207;SDS011;58938;49.868;8.646;2023-06-26T06:15:15;12.40;;;6.90;;
71207;SDS011;58938;49.868;8.646;2023-06-26T06:17:41;10.68;;;7.00;;
71207;SDS011;58938;49.868;8.646;2023-06-26T06:20:07;13.52;;;7.20;;
71207;SDS011;58938;49.868;8.646;2023-06-26T06:22:33;10.82;;;7.35;;
71207;SDS011;58938;49.868;8.646;2023-06-26T06:24:59;11.52;;;7.25;;
71207;SDS011;58938;49.868;8.646;2023-06-26T06:27:25;11.80;;;7.30;;
71207;SDS011;58938;49.868;8.646;2023-06-26T06:29:51;11.35;;;6.45;;
71207;SDS011;58938;49.868;8.646;2023-06-26T06:32:17;11.95;;;7.50;;
71207;SDS011;58938;49.868;8.646;2023-06-26T06:34:43;10.55;;;6.95;;
71207;SDS011;58938;49.868;8.646;2023-06-26T06:37:09;12.73;;;7.83;;
71207;SDS011;58938;49.868;8.646;2023-06-26T06:39:35;13.32;;;6.60;;
71207;SDS011;58938;49.868;8.646;2023-06-26T06:42:01;11.82;;;6.30;;
71207;SDS011;58938;49.868;8.646;2023-06-26T06:44:27;11.70;;;7.77;;
71207;SDS011;58938;49.868;8.646;2023-06-26T06:46:55;11.33;;;7.00;;
71207;SDS011;58938;49.868;8.646;2023-06-26T06:49:21;15.75;;;7.82;;
71207;SDS011;58938;49.868;8.646;2023-06-26T06:51:47;12.40;;;6.35;;
71207;SDS011;58938;49.868;8.646;2023-06-26T06:54:15;12.17;;;7.37;;
71207;SDS011;58938;49.868;8.646;2023-06-26T06:56:41;10.50;;;6.15;;
71207;SDS011;58938;49.868;8.646;2023-06-26T06:59:07;12.38;;;6.60;;
71207;SDS011;58938;49.868;8.646;2023-06-26T07:01:33;10.75;;;6.70;;
71207;SDS011;58938;49.868;8.646;2023-06-26T07:03:59;14.93;;;7.13;;
71207;SDS011;58938;49.868;8.646;2023-06-26T07:06:25;13.53;;;7.30;;
71207;SDS011;58938;49.868;8.646;2023-06-26T07:08:51;14.50;;;7.38;;
71207;SDS011;58938;49.868;8.646;2023-06-26T07:11:17;10.35;;;6.10;;
71207;SDS011;58938;49.868;8.646;2023-06-26T07:13:43;9.43;;;5.80;;
71207;SDS011;58938;49.868;8.646;2023-06-26T07:16:09;10.73;;;6.07;;
71207;SDS011;58938;49.868;8.646;2023-06-26T07:18:37;11.57;;;6.63;;
71207;SDS011;58938;49.868;8.646;2023-06-26T07:21:03;12.77;;;6.47;;
71207;SDS011;58938;49.868;8.646;2023-06-26T07:23:29;11.40;;;6.50;;
71207;SDS011;58938;49.868;8.646;2023-06-26T07:25:55;12.63;;;6.82;;
71207;SDS011;58938;49.868;8.646;2023-06-26T07:28:21;11.20;;;6.43;;
71207;SDS011;58938;49.868;8.646;2023-06-26T07:30:47;12.68;;;7.38;;
71207;SDS011;58938;49.868;8.646;2023-06-26T07:33:13;10.60;;;6.38;;
71207;SDS011;58938;49.868;8.646;2023-06-26T07:35:39;9.23;;;6.05;;
71207;SDS011;58938;49.868;8.646;2023-06-26T07:38:05;10.48;;;6.80;;
71207;SDS011;58938;49.868;8.646;2023-06-26T07:40:31;9.93;;;6.03;;
71207;SDS011;58938;49.868;8.646;2023-06-26T07:42:57;10.52;;;6.15;;
71207;SDS011;58938;49.868;8.646;2023-06-26T07:45:23;9.25;;;6.22;;
71207;SDS011;58938;49.868;8.646;2023-06-26T07:47:49;11.13;;;6.40;;
71207;SDS011;58938;49.868;8.646;2023-06-26T07:50:15;8.23;;;5.07;;
71207;SDS011;58938;49.868;8.646;2023-06-26T07:52:46;11.57;;;6.83;;
71207;SDS011;58938;49.868;8.646;2023-06-26T07:55:12;12.95;;;6.85;;
71207;SDS011;58938;49.868;8.646;2023-06-26T07:57:38;11.80;;;7.00;;
71207;SDS011;58938;49.868;8.646;2023-06-26T08:00:04;10.10;;;5.43;;
71207;SDS011;58938;49.868;8.646;2023-06-26T08:02:31;12.60;;;6.70;;
71207;SDS011;58938;49.868;8.646;2023-06-26T08:04:57;15.10;;;6.75;;
71207;SDS011;58938;49.868;8.646;2023-06-26T08:07:23;11.05;;;6.90;;
71207;SDS011;58938;49.868;8.646;2023-06-26T08:09:49;10.48;;;7.25;;
71207;SDS011;58938;49.868;8.646;2023-06-26T08:12:15;11.80;;;7.20;;
71207;SDS011;58938;49.868;8.646;2023-06-26T08:14:41;13.73;;;7.68;;
71207;SDS011;58938;49.868;8.646;2023-06-26T08:17:07;12.18;;;7.85;;
71207;SDS011;58938;49.868;8.646;2023-06-26T08:19:33;11.95;;;7.40;;
71207;SDS011;58938;49.868;8.646;2023-06-26T08:21:59;12.83;;;7.33;;
71207;SDS011;58938;49.868;8.646;2023-06-26T08:24:25;11.18;;;6.88;;
71207;SDS011;58938;49.868;8.646;2023-06-26T08:26:51;12.43;;;7.20;;
71207;SDS011;58938;49.868;8.646;2023-06-26T08:29:17;14.82;;;7.35;;
71207;SDS011;58938;49.868;8.646;2023-06-26T08:31:43;11.13;;;7.10;;
71207;SDS011;58938;49.868;8.646;2023-06-26T08:34:09;10.97;;;7.13;;
71207;SDS011;58938;49.868;8.646;2023-06-26T08:36:35;10.98;;;6.85;;
71207;SDS011;58938;49.868;8.646;2023-06-26T08:39:01;12.45;;;7.15;;
71207;SDS011;58938;49.868;8.646;2023-06-26T08:41:28;10.88;;;6.97;;
71207;SDS011;58938;49.868;8.646;2023-06-26T08:43:54;11.90;;;7.82;;
71207;SDS011;58938;49.868;8.646;2023-06-26T08:46:20;12.93;;;7.27;;
71207;SDS011;58938;49.868;8.646;2023-06-26T08:48:48;14.68;;;6.95;;
71207;SDS011;58938;49.868;8.646;2023-06-26T08:51:16;13.02;;;7.47;;
71207;SDS011;58938;49.868;8.646;2023-06-26T08:56:08;10.47;;;6.20;;
71207;SDS011;58938;49.868;8.646;2023-06-26T08:58:35;10.38;;;6.47;;
71207;SDS011;58938;49.868;8.646;2023-06-26T09:01:02;11.23;;;6.82;;
71207;SDS011;58938;49.868;8.646;2023-06-26T09:03:29;10.82;;;6.22;;
71207;SDS011;58938;49.868;8.646;2023-06-26T09:05:55;13.85;;;7.28;;
71207;SDS011;58938;49.868;8.646;2023-06-26T09:08:21;14.80;;;6.83;;
71207;SDS011;58938;49.868;8.646;2023-06-26T09:10:47;11.85;;;6.75;;
71207;SDS011;58938;49.868;8.646;2023-06-26T09:13:13;10.57;;;6.80;;
71207;SDS011;58938;49.868;8.646;2023-06-26T09:15:42;11.13;;;6.30;;
71207;SDS011;58938;49.868;8.646;2023-06-26T09:18:09;12.13;;;7.20;;
71207;SDS011;58938;49.868;8.646;2023-06-26T09:20:35;7.37;;;3.87;;
71207;SDS011;58938;49.868;8.646;2023-06-26T09:23:01;11.18;;;6.90;;
71207;SDS011;58938;49.868;8.646;2023-06-26T09:25:27;10.13;;;6.10;;
71207;SDS011;58938;49.868;8.646;2023-06-26T09:27:54;10.02;;;6.22;;
71207;SDS011;58938;49.868;8.646;2023-06-26T09:30:20;9.27;;;5.57;;
71207;SDS011;58938;49.868;8.646;2023-06-26T09:32:49;9.18;;;5.88;;
71207;SDS011;58938;49.868;8.646;2023-06-26T09:35:19;12.23;;;6.05;;
71207;SDS011;58938;49.868;8.646;2023-06-26T09:37:45;8.80;;;5.57;;
71207;SDS011;58938;49.868;8.646;2023-06-26T09:40:13;10.38;;;5.60;;
71207;SDS011;58938;49.868;8.646;2023-06-26T09:42:39;12.03;;;6.40;;
71207;SDS011;58938;49.868;8.646;2023-06-26T09:45:06;8.60;;;6.05;;
71207;SDS011;58938;49.868;8.646;2023-06-26T09:47:33;9.73;;;6.40;;
71207;SDS011;58938;49.868;8.646;2023-06-26T09:49:59;10.40;;;5.97;;
71207;SDS011;58938;49.868;8.646;2023-06-26T09:52:26;9.02;;;6.18;;
71207;SDS011;58938;49.868;8.646;2023-06-26T09:55:08;10.63;;;4.80;;
71207;SDS011;58938;49.868;8.646;2023-06-26T09:57:34;9.98;;;6.07;;
71207;SDS011;58938;49.868;8.646;2023-06-26T10:00:04;10.20;;;6.53;;
71207;SDS011;58938;49.868;8.646;2023-06-26T10:02:30;10.85;;;6.55;;
71207;SDS011;58938;49.868;8.646;2023-06-26T10:04:56;10.93;;;6.55;;
71207;SDS011;58938;49.868;8.646;2023-06-26T10:07:23;11.87;;;6.80;;
71207;SDS011;58938;49.868;8.646;2023-06-26T10:09:49;10.32;;;6.78;;
71207;SDS011;58938;49.868;8.646;2023-06-26T10:12:19;10.35;;;7.00;;
71207;SDS011;58938;49.868;8.646;2023-06-26T10:14:49;10.20;;;5.93;;
71207;SDS011;58938;49.868;8.646;2023-06-26T10:17:16;10.48;;;6.82;;
71207;SDS011;58938;49.868;8.646;2023-06-26T10:19:43;10.13;;;6.60;;
71207;SDS011;58938;49.868;8.646;2023-06-26T10:22:10;11.13;;;6.57;;
71207;SDS011;58938;49.868;8.646;2023-06-26T10:24:37;9.05;;;6.78;;
71207;SDS011;58938;49.868;8.646;2023-06-26T10:27:12;14.55;;;6.80;;
71207;SDS011;58938;49.868;8.646;2023-06-26T10:29:40;9.85;;;6.65;;
71207;SDS011;58938;49.868;8.646;2023-06-26T10:32:06;10.90;;;6.23;;
71207;SDS011;58938;49.868;8.646;2023-06-26T10:34:33;13.60;;;6.40;;
71207;SDS011;58938;49.868;8.646;2023-06-26T10:36:59;10.38;;;6.55;;
71207;SDS011;58938;49.868;8.646;2023-06-26T10:39:26;11.32;;;5.90;;
71207;SDS011;58938;49.868;8.646;2023-06-26T10:41:54;12.75;;;7.05;;
71207;SDS011;58938;49.868;8.646;2023-06-26T10:44:21;9.97;;;5.80;;
71207;SDS011;58938;49.868;8.646;2023-06-26T10:46:53;13.93;;;6.28;;
71207;SDS011;58938;49.868;8.646;2023-06-26T10:49:20;9.20;;;5.50;;
71207;SDS011;58938;49.868;8.646;2023-06-26T10:51:47;10.38;;;5.70;;
71207;SDS011;58938;49.868;8.646;2023-06-26T10:54:17;9.35;;;5.57;;
71207;SDS011;58938;49.868;8.646;2023-06-26T10:56:45;9.90;;;5.70;;
71207;SDS011;58938;49.868;8.646;2023-06-26T10:59:20;11.55;;;6.40;;
71207;SDS011;58938;49.868;8.646;2023-06-26T11:01:56;10.73;;;5.85;;
71207;SDS011;58938;49.868;8.646;2023-06-26T11:15:02;10.15;;;6.28;;
71207;SDS011;58938;49.868;8.646;2023-06-26T11:17:28;10.00;;;5.93;;
71207;SDS011;58938;49.868;8.646;2023-06-26T11:19:55;10.95;;;6.70;;
71207;SDS011;58938;49.868;8.646;2023-06-26T11:22:22;9.50;;;6.00;;
71207;SDS011;58938;49.868;8.646;2023-06-26T11:24:51;9.63;;;5.53;;
71207;SDS011;58938;49.868;8.646;2023-06-26T11:27:18;10.30;;;6.13;;
71207;SDS011;58938;49.868;8.646;2023-06-26T11:29:48;8.82;;;5.60;;
71207;SDS011;58938;49.868;8.646;2023-06-26T11:32:15;10.38;;;5.63;;
71207;SDS011;58938;49.868;8.646;2023-06-26T11:34:40;8.90;;;5.20;;
71207;SDS011;58938;49.868;8.646;2023-06-26T11:37:08;11.38;;;5.93;;
71207;SDS011;58938;49.868;8.646;2023-06-26T11:39:34;11.07;;;5.55;;
71207;SDS011;58938;49.868;8.646;2023-06-26T11:42:02;8.50;;;5.40;;
71207;SDS011;58938;49.868;8.646;2023-06-26T11:44:31;9.82;;;5.97;;
71207;SDS011;58938;49.868;8.646;2023-06-26T11:46:57;9.70;;;5.53;;
71207;SDS011;58938;49.868;8.646;2023-06-26T11:49:23;10.25;;;5.32;;
71207;SDS011;58938;49.868;8.646;2023-06-26T11:52:02;10.68;;;5.38;;
71207;SDS011;58938;49.868;8.646;2023-06-26T11:54:31;24.83;;;5.43;;
71207;SDS011;58938;49.868;8.646;2023-06-26T11:56:58;9.40;;;5.65;;
71207;SDS011;58938;49.868;8.646;2023-06-26T11:59:24;16.33;;;5.20;;
71207;SDS011;58938;49.868;8.646;2023-06-26T12:01:57;10.20;;;4.78;;
71207;SDS011;58938;49.868;8.646;2023-06-26T12:04:23;9.65;;;5.97;;
71207;SDS011;58938;49.868;8.646;2023-06-26T12:06:50;8.00;;;5.32;;
71207;SDS011;58938;49.868;8.646;2023-06-26T12:09:20;14.60;;;6.60;;
71207;SDS011;58938;49.868;8.646;2023-06-26T12:11:47;13.67;;;6.63;;
71207;SDS011;58938;49.868;8.646;2023-06-26T12:14:14;10.10;;;5.07;;
71207;SDS011;58938;49.868;8.646;2023-06-26T12:16:40;9.15;;;5.00;;
71207;SDS011;58938;49.868;8.646;2023-06-26T12:19:06;10.65;;;5.40;;
71207;SDS011;58938;49.868;8.646;2023-06-26T12:24:15;10.53;;;6.43;;
71207;SDS011;58938;49.868;8.646;2023-06-26T12:26:45;9.00;;;5.65;;
71207;SDS011;58938;49.868;8.646;2023-06-26T12:29:12;9.05;;;5.80;;
71207;SDS011;58938;49.868;8.646;2023-06-26T12:31:42;10.57;;;6.05;;
71207;SDS011;58938;49.868;8.646;2023-06-26T12:34:09;10.43;;;6.28;;
71207;SDS011;58938;49.868;8.646;2023-06-26T12:36:41;10.73;;;6.80;;
71207;SDS011;58938;49.868;8.646;2023-06-26T12:39:11;14.70;;;6.82;;
71207;SDS011;58938;49.868;8.646;2023-06-26T12:41:46;11.43;;;6.95;;
71207;SDS011;58938;49.868;8.646;2023-06-26T12:44:16;13.40;;;6.40;;
71207;SDS011;58938;49.868;8.646;2023-06-26T12:46:43;13.32;;;7.60;;
71207;SDS011;58938;49.868;8.646;2023-06-26T12:49:11;13.43;;;6.23;;
71207;SDS011;58938;49.868;8.646;2023-06-26T12:51:37;14.15;;;6.90;;
71207;SDS011;58938;49.868;8.646;2023-06-26T12:54:05;11.00;;;7.13;;
71207;SDS011;58938;49.868;8.646;2023-06-26T12:56:32;15.45;;;7.47;;
71207;SDS011;58938;49.868;8.646;2023-06-26T12:58:58;14.20;;;7.70;;
71207;SDS011;58938;49.868;8.646;2023-06-26T13:01:27;15.17;;;7.20;;
71207;SDS011;58938;49.868;8.646;2023-06-26T13:03:53;11.23;;;7.38;;
71207;SDS011;58938;49.868;8.646;2023-06-26T13:06:19;11.75;;;5.90;;
71207;SDS011;58938;49.868;8.646;2023-06-26T13:08:45;10.73;;;5.95;;
71207;SDS011;58938;49.868;8.646;2023-06-26T13:11:11;9.88;;;6.13;;
71207;SDS011;58938;49.868;8.646;2023-06-26T13:13:37;10.60;;;5.50;;
71207;SDS011;58938;49.868;8.646;2023-06-26T13:16:03;31.55;;;6.28;;
71207;SDS011;58938;49.868;8.646;2023-06-26T13:18:30;8.95;;;5.70;;
71207;SDS011;58938;49.868;8.646;2023-06-26T13:20:56;12.95;;;5.63;;
71207;SDS011;58938;49.868;8.646;2023-06-26T13:23:26;10.23;;;5.50;;
71207;SDS011;58938;49.868;8.646;2023-06-26T13:25:53;8.43;;;4.00;;
71207;SDS011;58938;49.868;8.646;2023-06-26T13:28:19;12.90;;;4.68;;
71207;SDS011;58938;49.868;8.646;2023-06-26T13:30:45;9.23;;;4.45;;
71207;SDS011;58938;49.868;8.646;2023-06-26T13:33:11;8.55;;;4.78;;
71207;SDS011;58938;49.868;8.646;2023-06-26T13:35:37;11.80;;;4.87;;
71207;SDS011;58938;49.868;8.646;2023-06-26T13:38:03;9.40;;;3.97;;
71207;SDS011;58938;49.868;8.646;2023-06-26T13:40:29;11.25;;;4.18;;
71207;SDS011;58938;49.868;8.646;2023-06-26T13:42:55;8.73;;;5.00;;
71207;SDS011;58938;49.868;8.646;2023-06-26T13:45:21;8.17;;;4.47;;
71207;SDS011;58938;49.868;8.646;2023-06-26T13:47:53;8.02;;;4.28;;
71207;SDS011;58938;49.868;8.646;2023-06-26T13:50:19;14.55;;;5.47;;
71207;SDS011;58938;49.868;8.646;2023-06-26T13:52:45;10.88;;;6.05;;
71207;SDS011;58938;49.868;8.646;2023-06-26T13:55:11;9.07;;;6.00;;
71207;SDS011;58938;49.868;8.646;2023-06-26T13:57:37;10.83;;;5.97;;
71207;SDS011;58938;49.868;8.646;2023-06-26T14:00:07;8.65;;;5.30;;
71207;SDS011;58938;49.868;8.646;2023-06-26T14:02:33;10.27;;;5.38;;
71207;SDS011;58938;49.868;8.646;2023-06-26T14:04:59;8.23;;;5.00;;
71207;SDS011;58938;49.868;8.646;2023-06-26T14:07:25;11.23;;;5.78;;
71207;SDS011;58938;49.868;8.646;2023-06-26T14:09:51;11.33;;;5.00;;
71207;SDS011;58938;49.868;8.646;2023-06-26T14:12:17;9.30;;;4.70;;
71207;SDS011;58938;49.868;8.646;2023-06-26T14:14:43;9.30;;;5.53;;
71207;SDS011;58938;49.868;8.646;2023-06-26T14:17:09;8.55;;;3.92;;
71207;SDS011;58938;49.868;8.646;2023-06-26T14:19:40;7.00;;;3.10;;
71207;SDS011;58938;49.868;8.646;2023-06-26T14:22:06;8.80;;;5.00;;
71207;SDS011;58938;49.868;8.646;2023-06-26T14:24:32;9.68;;;5.07;;
71207;SDS011;58938;49.868;8.646;2023-06-26T14:26:58;11.38;;;3.92;;
71207;SDS011;58938;49.868;8.646;2023-06-26T14:29:24;7.97;;;4.00;;
71207;SDS011;58938;49.868;8.646;2023-06-26T14:31:50;8.70;;;4.50;;
71207;SDS011;58938;49.868;8.646;2023-06-26T14:34:16;12.98;;;4.60;;
71207;SDS011;58938;49.868;8.646;2023-06-26T14:36:42;8.40;;;4.43;;
71207;SDS011;58938;49.868;8.646;2023-06-26T14:39:08;7.45;;;3.90;;
71207;SDS011;58938;49.868;8.646;2023-06-26T14:41:35;10.63;;;3.23;;
71207;SDS011;58938;49.868;8.646;2023-06-26T14:44:01;6.93;;;2.90;;
71207;SDS011;58938;49.868;8.646;2023-06-26T14:46:27;7.78;;;3.00;;
71207;SDS011;58938;49.868;8.646;2023-06-26T14:48:53;7.65;;;3.30;;
71207;SDS011;58938;49.868;8.646;2023-06-26T14:51:20;6.03;;;2.93;;
71207;SDS011;58938;49.868;8.646;2023-06-26T14:53:47;9.20;;;3.30;;
71207;SDS011;58938;49.868;8.646;2023-06-26T14:56:13;6.57;;;2.95;;